Port Lavaca, TX

6:13 PM CST on March 06, 2015 (GMT -0600)
J.S. Farms - 7 miles west of Port Lavaca | Change Station
CLOSE
Current Station
Personal Weather Station
Location: Port Lavaca, TX
Elevation: 43 ft
Nearby Weather Stations

Elev 43 ft 28.60 °N, 96.73 °W | Updated 14 minutes ago

Overcast
Overcast
52.2 °F
Feels Like 52.2 °F
N
4.0
Wind Variable Wind from ENE
Gusts 7.0 mph

Today
High -- | Low -- °F
--% Chance of Precip.
Yesterday
High -- | Low -- °F
Precip. -- in
6:46 AM 6:29 PM
Full, 99% visible
Pressure 30.48 in
Visibility 10.0 miles
Clouds Overcast 9000 ft
Dew Point 30 °F
Humidity 43%
Rainfall in
Snow Depth Not available.
UV 0 out of 12
Pollen 8.60 out of 12
Air Quality Not available.
Flu Activity Not available.
METAR KPKV 062355Z AUTO 06006KT 10SM OVC090 11/M03 A3048 RMK AO2 T01111030 10121 20078

More Conditions Fewer Conditions

Pressure 30.48 in
Visibility 10.0 miles
Clouds Overcast 9000 ft
Dew Point 30 °F
Humidity 43%
Rainfall in
Snow Depth Not available.
UV 0 out of 12
Pollen 8.60 out of 12
Air Quality Not available.
Flu Activity Not available.
METAR KPKV 062355Z AUTO 06006KT 10SM OVC090 11/M03 A3048 RMK AO2 T01111030 10121 20078

More Conditions Fewer Conditions

10-Day Weather Forecast

Almanac

Astronomy

Mar. 06, 2015 Rise Set
Actual Time
Civil Twilight
Nautical Twilight
Astronomical Twilight
Moon
Length of Visible Light
Length of Day
Tomorrow will be .
, % of the Moon is Illuminated

Today's Extremes

State Highs State Lows

Community

WunderPhotos

Upload Photos

1,803,466 photos uploaded!

WunderBlogs® & News

Nearby

Air Quality

  Air Quality AQ Index Pollutant
Not available.

Snow Depth

Station Depth Elevation

Earthquake Activity

City Distance Mag. Time & Date
Minimum magnitude displayed is 2.5.

Coastal Water Temperatures

Place Temperature

Nearby Weather Stations